Airmont, New York
Current Conditions -  °F | °C
As of 2:51 PM on Friday 31 Oct 2014 (Local Time) from KTEB Reporting Station
Overcast Overcast  
Wind Chill: 54°   Ceiling: 5000
Heat Index: 54°   Visibility: 10mi
Dew Point: 36°   Wind: 3mph
Humidity: 51%   Direction: NA
Pressure: 29.91"   Gusts: NA
Location:  41.1112°N, 74.0777°W
Report Text: KTEB 311851Z VRB03KT 10SM OVC050 12/02 A2991 RMK AO2 SLP127 T01220022
Loading
Personal Weather Stations






























Interactive Weather Map New forecast layout! Learn more

10-Day Weather Forecast

Advertisements
Track Severe Weather on mobile